sensor_id;sensor_type;location;lat;lon;timestamp;pressure;altitude;pressure_sealevel;temperature;humidity
79481;BME280;68944;48.262;14.208;2024-01-27T00:00:22;99705.75;;;4.52;100.00
79481;BME280;68944;48.262;14.208;2024-01-27T00:02:47;99715.59;;;4.50;100.00
79481;BME280;68944;48.262;14.208;2024-01-27T00:05:13;99731.22;;;4.52;100.00
79481;BME280;68944;48.262;14.208;2024-01-27T00:07:39;99717.09;;;4.53;100.00
79481;BME280;68944;48.262;14.208;2024-01-27T00:10:06;99729.38;;;4.52;100.00
79481;BME280;68944;48.262;14.208;2024-01-27T00:12:31;99719.63;;;4.44;100.00
79481;BME280;68944;48.262;14.208;2024-01-27T00:14:57;99723.53;;;4.40;100.00
79481;BME280;68944;48.262;14.208;2024-01-27T00:17:23;99727.69;;;4.33;100.00
79481;BME280;68944;48.262;14.208;2024-01-27T00:19:54;99727.97;;;4.30;100.00
79481;BME280;68944;48.262;14.208;2024-01-27T00:22:20;99713.31;;;4.27;100.00
79481;BME280;68944;48.262;14.208;2024-01-27T00:24:48;99718.03;;;4.24;100.00
79481;BME280;68944;48.262;14.208;2024-01-27T00:27:14;99717.38;;;4.21;100.00
79481;BME280;68944;48.262;14.208;2024-01-27T00:29:39;99726.34;;;4.19;100.00
79481;BME280;68944;48.262;14.208;2024-01-27T00:32:05;99724.16;;;4.14;100.00
79481;BME280;68944;48.262;14.208;2024-01-27T00:34:30;99744.44;;;4.12;100.00
79481;BME280;68944;48.262;14.208;2024-01-27T00:36:56;99733.97;;;4.12;100.00
79481;BME280;68944;48.262;14.208;2024-01-27T00:39:22;99731.88;;;4.06;100.00
79481;BME280;68944;48.262;14.208;2024-01-27T00:41:48;99727.63;;;4.05;100.00
79481;BME280;68944;48.262;14.208;2024-01-27T00:44:13;99728.88;;;4.01;100.00
79481;BME280;68944;48.262;14.208;2024-01-27T00:46:39;99738.81;;;3.97;100.00
79481;BME280;68944;48.262;14.208;2024-01-27T00:49:05;99735.50;;;3.95;100.00
79481;BME280;68944;48.262;14.208;2024-01-27T00:51:31;99744.47;;;3.92;100.00
79481;BME280;68944;48.262;14.208;2024-01-27T00:53:56;99741.31;;;3.89;100.00
79481;BME280;68944;48.262;14.208;2024-01-27T00:56:21;99767.81;;;3.85;100.00
79481;BME280;68944;48.262;14.208;2024-01-27T00:58:47;99755.69;;;3.84;100.00
79481;BME280;68944;48.262;14.208;2024-01-27T01:01:13;99752.38;;;3.82;100.00
79481;BME280;68944;48.262;14.208;2024-01-27T01:03:39;99744.94;;;3.78;100.00
79481;BME280;68944;48.262;14.208;2024-01-27T01:06:05;99749.34;;;3.77;100.00
79481;BME280;68944;48.262;14.208;2024-01-27T01:08:31;99754.16;;;3.72;100.00
79481;BME280;68944;48.262;14.208;2024-01-27T01:10:58;99765.91;;;3.68;100.00
79481;BME280;68944;48.262;14.208;2024-01-27T01:13:23;99742.56;;;3.64;100.00
79481;BME280;68944;48.262;14.208;2024-01-27T01:15:49;99752.38;;;3.62;100.00
79481;BME280;68944;48.262;14.208;2024-01-27T01:18:14;99746.59;;;3.59;100.00
79481;BME280;68944;48.262;14.208;2024-01-27T01:20:40;99751.16;;;3.57;100.00
79481;BME280;68944;48.262;14.208;2024-01-27T01:23:06;99765.34;;;3.54;100.00
79481;BME280;68944;48.262;14.208;2024-01-27T01:25:31;99768.50;;;3.58;100.00
79481;BME280;68944;48.262;14.208;2024-01-27T01:27:57;99761.88;;;3.53;100.00
79481;BME280;68944;48.262;14.208;2024-01-27T01:30:22;99758.84;;;3.48;100.00
79481;BME280;68944;48.262;14.208;2024-01-27T01:32:47;99744.91;;;3.48;100.00
79481;BME280;68944;48.262;14.208;2024-01-27T01:35:13;99747.81;;;3.45;100.00
79481;BME280;68944;48.262;14.208;2024-01-27T01:37:39;99757.63;;;3.43;100.00
79481;BME280;68944;48.262;14.208;2024-01-27T01:40:06;99759.25;;;3.44;100.00
79481;BME280;68944;48.262;14.208;2024-01-27T01:42:32;99762.88;;;3.43;100.00
79481;BME280;68944;48.262;14.208;2024-01-27T01:44:58;99760.50;;;3.39;100.00
79481;BME280;68944;48.262;14.208;2024-01-27T01:47:25;99760.91;;;3.35;100.00
79481;BME280;68944;48.262;14.208;2024-01-27T01:49:50;99777.72;;;3.32;100.00
79481;BME280;68944;48.262;14.208;2024-01-27T01:52:17;99783.81;;;3.33;100.00
79481;BME280;68944;48.262;14.208;2024-01-27T01:54:48;99777.03;;;3.30;100.00
79481;BME280;68944;48.262;14.208;2024-01-27T01:57:14;99778.03;;;3.29;100.00
79481;BME280;68944;48.262;14.208;2024-01-27T01:59:40;99788.75;;;3.26;100.00
79481;BME280;68944;48.262;14.208;2024-01-27T02:02:06;99782.69;;;3.25;100.00
79481;BME280;68944;48.262;14.208;2024-01-27T02:04:42;99784.63;;;3.23;100.00
79481;BME280;68944;48.262;14.208;2024-01-27T02:07:08;99774.69;;;3.17;100.00
79481;BME280;68944;48.262;14.208;2024-01-27T02:09:35;99776.03;;;3.11;100.00
79481;BME280;68944;48.262;14.208;2024-01-27T02:12:01;99780.88;;;3.06;100.00
79481;BME280;68944;48.262;14.208;2024-01-27T02:14:28;99785.28;;;3.05;100.00
79481;BME280;68944;48.262;14.208;2024-01-27T02:16:54;99786.22;;;3.04;100.00
79481;BME280;68944;48.262;14.208;2024-01-27T02:19:20;99795.44;;;2.99;100.00
79481;BME280;68944;48.262;14.208;2024-01-27T02:21:45;99795.03;;;2.93;100.00
79481;BME280;68944;48.262;14.208;2024-01-27T02:24:11;99804.94;;;2.90;100.00
79481;BME280;68944;48.262;14.208;2024-01-27T02:26:37;99806.84;;;2.88;100.00
79481;BME280;68944;48.262;14.208;2024-01-27T02:29:02;99807.94;;;2.85;100.00
79481;BME280;68944;48.262;14.208;2024-01-27T02:31:28;99820.75;;;2.88;100.00
79481;BME280;68944;48.262;14.208;2024-01-27T02:33:54;99802.31;;;2.90;100.00
79481;BME280;68944;48.262;14.208;2024-01-27T02:36:19;99805.75;;;2.90;100.00
79481;BME280;68944;48.262;14.208;2024-01-27T02:38:45;99803.00;;;2.92;100.00
79481;BME280;68944;48.262;14.208;2024-01-27T02:41:10;99817.59;;;2.94;100.00
79481;BME280;68944;48.262;14.208;2024-01-27T02:43:37;99818.88;;;3.00;100.00
79481;BME280;68944;48.262;14.208;2024-01-27T02:46:12;99820.25;;;3.04;100.00
79481;BME280;68944;48.262;14.208;2024-01-27T02:48:41;99823.19;;;3.11;100.00
79481;BME280;68944;48.262;14.208;2024-01-27T02:51:07;99830.63;;;3.16;100.00
79481;BME280;68944;48.262;14.208;2024-01-27T02:53:33;99842.50;;;3.20;100.00
79481;BME280;68944;48.262;14.208;2024-01-27T02:55:59;99842.25;;;3.23;100.00
79481;BME280;68944;48.262;14.208;2024-01-27T02:58:24;99843.78;;;3.26;100.00
79481;BME280;68944;48.262;14.208;2024-01-27T03:00:50;99844.91;;;3.33;100.00
79481;BME280;68944;48.262;14.208;2024-01-27T03:03:15;99841.88;;;3.38;100.00
79481;BME280;68944;48.262;14.208;2024-01-27T03:05:41;99840.88;;;3.39;100.00
79481;BME280;68944;48.262;14.208;2024-01-27T03:08:07;99851.66;;;3.36;100.00
79481;BME280;68944;48.262;14.208;2024-01-27T03:10:33;99834.28;;;3.35;100.00
79481;BME280;68944;48.262;14.208;2024-01-27T03:12:59;99854.53;;;3.33;100.00
79481;BME280;68944;48.262;14.208;2024-01-27T03:15:24;99850.25;;;3.32;100.00
79481;BME280;68944;48.262;14.208;2024-01-27T03:17:50;99857.97;;;3.23;100.00
79481;BME280;68944;48.262;14.208;2024-01-27T03:20:15;99859.19;;;3.19;100.00
79481;BME280;68944;48.262;14.208;2024-01-27T03:22:41;99864.69;;;3.16;100.00
79481;BME280;68944;48.262;14.208;2024-01-27T03:25:10;99858.06;;;3.12;100.00
79481;BME280;68944;48.262;14.208;2024-01-27T03:27:39;99846.63;;;3.13;100.00
79481;BME280;68944;48.262;14.208;2024-01-27T03:30:05;99848.41;;;3.12;100.00
79481;BME280;68944;48.262;14.208;2024-01-27T03:32:31;99856.13;;;3.14;100.00
79481;BME280;68944;48.262;14.208;2024-01-27T03:35:00;99860.41;;;3.15;100.00
79481;BME280;68944;48.262;14.208;2024-01-27T03:37:26;99864.56;;;3.17;100.00
79481;BME280;68944;48.262;14.208;2024-01-27T03:39:52;99865.66;;;3.15;100.00
79481;BME280;68944;48.262;14.208;2024-01-27T03:42:18;99868.53;;;3.12;100.00
79481;BME280;68944;48.262;14.208;2024-01-27T03:44:43;99864.28;;;3.11;100.00
79481;BME280;68944;48.262;14.208;2024-01-27T03:47:09;99876.38;;;3.12;100.00
79481;BME280;68944;48.262;14.208;2024-01-27T03:49:35;99867.16;;;3.07;100.00
79481;BME280;68944;48.262;14.208;2024-01-27T03:52:02;99880.25;;;3.07;100.00
79481;BME280;68944;48.262;14.208;2024-01-27T03:54:28;99875.84;;;3.08;100.00
79481;BME280;68944;48.262;14.208;2024-01-27T03:56:54;99884.91;;;3.04;100.00
79481;BME280;68944;48.262;14.208;2024-01-27T03:59:20;99889.56;;;3.00;100.00
79481;BME280;68944;48.262;14.208;2024-01-27T04:01:46;99890.09;;;2.94;100.00
79481;BME280;68944;48.262;14.208;2024-01-27T04:04:11;99899.19;;;2.90;100.00
79481;BME280;68944;48.262;14.208;2024-01-27T04:06:37;99890.59;;;2.88;100.00
79481;BME280;68944;48.262;14.208;2024-01-27T04:09:03;99896.97;;;2.85;100.00
79481;BME280;68944;48.262;14.208;2024-01-27T04:11:29;99902.44;;;2.82;100.00
79481;BME280;68944;48.262;14.208;2024-01-27T04:13:54;99896.22;;;2.83;100.00
79481;BME280;68944;48.262;14.208;2024-01-27T04:16:20;99900.38;;;2.86;100.00
79481;BME280;68944;48.262;14.208;2024-01-27T04:18:46;99901.09;;;2.88;100.00
79481;BME280;68944;48.262;14.208;2024-01-27T04:21:12;99899.88;;;2.92;100.00
79481;BME280;68944;48.262;14.208;2024-01-27T04:23:37;99904.44;;;2.90;100.00
79481;BME280;68944;48.262;14.208;2024-01-27T04:26:03;99926.47;;;2.87;100.00
79481;BME280;68944;48.262;14.208;2024-01-27T04:28:28;99926.47;;;2.87;100.00
79481;BME280;68944;48.262;14.208;2024-01-27T04:30:55;99941.31;;;2.87;100.00
79481;BME280;68944;48.262;14.208;2024-01-27T04:33:21;99944.78;;;2.87;100.00
79481;BME280;68944;48.262;14.208;2024-01-27T04:35:46;99948.88;;;2.80;100.00
79481;BME280;68944;48.262;14.208;2024-01-27T04:38:12;99947.31;;;2.77;100.00
79481;BME280;68944;48.262;14.208;2024-01-27T04:40:37;99961.34;;;2.76;100.00
79481;BME280;68944;48.262;14.208;2024-01-27T04:43:03;99960.81;;;2.72;100.00
79481;BME280;68944;48.262;14.208;2024-01-27T04:45:28;99960.47;;;2.66;100.00
79481;BME280;68944;48.262;14.208;2024-01-27T04:47:54;99958.00;;;2.64;100.00
79481;BME280;68944;48.262;14.208;2024-01-27T04:50:20;99959.19;;;2.60;100.00
79481;BME280;68944;48.262;14.208;2024-01-27T04:52:46;99956.00;;;2.56;100.00
79481;BME280;68944;48.262;14.208;2024-01-27T04:55:11;99959.56;;;2.55;100.00
79481;BME280;68944;48.262;14.208;2024-01-27T04:57:37;99960.06;;;2.49;100.00
79481;BME280;68944;48.262;14.208;2024-01-27T05:00:04;99970.53;;;2.49;100.00
79481;BME280;68944;48.262;14.208;2024-01-27T05:02:41;99983.28;;;2.42;100.00
79481;BME280;68944;48.262;14.208;2024-01-27T05:05:07;99975.13;;;2.35;100.00
79481;BME280;68944;48.262;14.208;2024-01-27T05:07:33;99979.66;;;2.33;100.00
79481;BME280;68944;48.262;14.208;2024-01-27T05:09:59;99982.50;;;2.30;100.00
79481;BME280;68944;48.262;14.208;2024-01-27T05:12:24;99992.97;;;2.30;100.00
79481;BME280;68944;48.262;14.208;2024-01-27T05:14:50;99999.03;;;2.31;100.00
79481;BME280;68944;48.262;14.208;2024-01-27T05:17:16;100002.00;;;2.26;100.00
79481;BME280;68944;48.262;14.208;2024-01-27T05:19:41;100005.69;;;2.23;100.00
79481;BME280;68944;48.262;14.208;2024-01-27T05:22:07;100012.72;;;2.23;100.00
79481;BME280;68944;48.262;14.208;2024-01-27T05:24:32;100014.63;;;2.21;100.00
79481;BME280;68944;48.262;14.208;2024-01-27T05:26:58;100021.75;;;2.19;100.00
79481;BME280;68944;48.262;14.208;2024-01-27T05:29:25;100011.06;;;2.22;100.00
79481;BME280;68944;48.262;14.208;2024-01-27T05:31:51;100012.97;;;2.20;100.00
79481;BME280;68944;48.262;14.208;2024-01-27T05:34:18;100015.59;;;2.20;100.00
79481;BME280;68944;48.262;14.208;2024-01-27T05:36:43;100016.81;;;2.15;100.00
79481;BME280;68944;48.262;14.208;2024-01-27T05:39:10;100028.91;;;2.16;100.00
79481;BME280;68944;48.262;14.208;2024-01-27T05:41:35;100028.06;;;2.16;100.00
79481;BME280;68944;48.262;14.208;2024-01-27T05:44:01;100027.50;;;2.12;100.00
79481;BME280;68944;48.262;14.208;2024-01-27T05:46:26;100029.63;;;2.07;100.00
79481;BME280;68944;48.262;14.208;2024-01-27T05:48:52;100037.47;;;2.07;100.00
79481;BME280;68944;48.262;14.208;2024-01-27T05:51:20;100029.75;;;2.06;100.00
79481;BME280;68944;48.262;14.208;2024-01-27T05:53:45;100028.22;;;2.03;100.00
79481;BME280;68944;48.262;14.208;2024-01-27T05:56:11;100031.19;;;1.98;100.00
79481;BME280;68944;48.262;14.208;2024-01-27T05:58:37;100032.25;;;1.96;100.00
79481;BME280;68944;48.262;14.208;2024-01-27T06:01:03;100029.88;;;1.92;100.00
79481;BME280;68944;48.262;14.208;2024-01-27T06:03:28;100035.84;;;1.95;100.00
79481;BME280;68944;48.262;14.208;2024-01-27T06:05:54;100035.59;;;1.86;100.00
79481;BME280;68944;48.262;14.208;2024-01-27T06:08:20;100040.25;;;1.83;100.00
79481;BME280;68944;48.262;14.208;2024-01-27T06:10:46;100038.47;;;1.83;100.00
79481;BME280;68944;48.262;14.208;2024-01-27T06:13:12;100044.28;;;1.87;100.00
79481;BME280;68944;48.262;14.208;2024-01-27T06:15:38;100044.16;;;1.77;100.00
79481;BME280;68944;48.262;14.208;2024-01-27T06:18:04;100046.91;;;1.75;100.00
79481;BME280;68944;48.262;14.208;2024-01-27T06:20:31;100050.56;;;1.73;100.00
79481;BME280;68944;48.262;14.208;2024-01-27T06:22:56;100048.78;;;1.73;100.00
79481;BME280;68944;48.262;14.208;2024-01-27T06:25:23;100051.28;;;1.75;100.00
79481;BME280;68944;48.262;14.208;2024-01-27T06:27:48;100048.09;;;1.71;100.00
79481;BME280;68944;48.262;14.208;2024-01-27T06:30:14;100049.72;;;1.72;100.00
79481;BME280;68944;48.262;14.208;2024-01-27T06:32:41;100050.56;;;1.73;100.00
79481;BME280;68944;48.262;14.208;2024-01-27T06:35:06;100052.59;;;1.69;100.00
79481;BME280;68944;48.262;14.208;2024-01-27T06:37:32;100052.25;;;1.62;100.00
79481;BME280;68944;48.262;14.208;2024-01-27T06:39:58;100063.75;;;1.59;100.00
79481;BME280;68944;48.262;14.208;2024-01-27T06:42:24;100081.34;;;1.57;100.00
79481;BME280;68944;48.262;14.208;2024-01-27T06:44:50;100080.72;;;1.54;100.00
79481;BME280;68944;48.262;14.208;2024-01-27T06:47:15;100072.88;;;1.54;100.00
79481;BME280;68944;48.262;14.208;2024-01-27T06:49:41;100082.97;;;1.58;100.00
79481;BME280;68944;48.262;14.208;2024-01-27T06:52:06;100082.84;;;1.60;100.00
79481;BME280;68944;48.262;14.208;2024-01-27T06:54:32;100089.97;;;1.58;100.00
79481;BME280;68944;48.262;14.208;2024-01-27T06:57:01;100097.59;;;1.61;100.00
79481;BME280;68944;48.262;14.208;2024-01-27T06:59:26;100106.28;;;1.62;100.00
79481;BME280;68944;48.262;14.208;2024-01-27T07:01:53;100104.25;;;1.65;100.00
79481;BME280;68944;48.262;14.208;2024-01-27T07:04:18;100111.75;;;1.70;100.00
79481;BME280;68944;48.262;14.208;2024-01-27T07:06:44;100111.75;;;1.70;100.00
79481;BME280;68944;48.262;14.208;2024-01-27T07:09:10;100109.03;;;1.72;100.00
79481;BME280;68944;48.262;14.208;2024-01-27T07:11:36;100105.22;;;1.76;100.00
79481;BME280;68944;48.262;14.208;2024-01-27T07:14:03;100107.50;;;1.80;100.00
79481;BME280;68944;48.262;14.208;2024-01-27T07:16:28;100114.13;;;1.85;100.00
79481;BME280;68944;48.262;14.208;2024-01-27T07:18:54;100109.75;;;1.85;100.00
79481;BME280;68944;48.262;14.208;2024-01-27T07:21:19;100124.25;;;1.89;100.00
79481;BME280;68944;48.262;14.208;2024-01-27T07:23:45;100122.81;;;1.85;100.00
79481;BME280;68944;48.262;14.208;2024-01-27T07:26:11;100135.53;;;1.90;100.00
79481;BME280;68944;48.262;14.208;2024-01-27T07:28:37;100143.25;;;1.91;100.00
79481;BME280;68944;48.262;14.208;2024-01-27T07:31:03;100143.38;;;1.90;100.00
79481;BME280;68944;48.262;14.208;2024-01-27T07:33:29;100146.72;;;1.92;100.00
79481;BME280;68944;48.262;14.208;2024-01-27T07:35:55;100151.94;;;1.92;100.00
79481;BME280;68944;48.262;14.208;2024-01-27T07:38:20;100151.22;;;2.01;100.00
79481;BME280;68944;48.262;14.208;2024-01-27T07:40:46;100150.03;;;2.06;100.00
79481;BME280;68944;48.262;14.208;2024-01-27T07:43:11;100150.25;;;2.02;100.00
79481;BME280;68944;48.262;14.208;2024-01-27T07:45:37;100145.66;;;2.06;100.00
79481;BME280;68944;48.262;14.208;2024-01-27T07:48:03;100137.53;;;2.09;100.00
79481;BME280;68944;48.262;14.208;2024-01-27T07:50:29;100139.09;;;2.00;100.00
79481;BME280;68944;48.262;14.208;2024-01-27T07:52:54;100135.53;;;2.01;100.00
79481;BME280;68944;48.262;14.208;2024-01-27T07:55:21;100132.22;;;1.99;100.00
79481;BME280;68944;48.262;14.208;2024-01-27T07:57:46;100135.78;;;1.98;100.00
79481;BME280;68944;48.262;14.208;2024-01-27T08:00:12;100144.31;;;2.00;100.00
79481;BME280;68944;48.262;14.208;2024-01-27T08:02:38;100150.38;;;2.01;100.00
79481;BME280;68944;48.262;14.208;2024-01-27T08:05:03;100141.59;;;2.02;100.00
79481;BME280;68944;48.262;14.208;2024-01-27T08:07:29;100139.44;;;2.07;100.00
79481;BME280;68944;48.262;14.208;2024-01-27T08:09:55;100156.56;;;2.11;100.00
79481;BME280;68944;48.262;14.208;2024-01-27T08:12:22;100148.00;;;2.09;100.00
79481;BME280;68944;48.262;14.208;2024-01-27T08:14:48;100150.41;;;2.12;100.00
79481;BME280;68944;48.262;14.208;2024-01-27T08:17:13;100153.13;;;2.11;100.00
79481;BME280;68944;48.262;14.208;2024-01-27T08:19:39;100151.34;;;2.11;100.00
79481;BME280;68944;48.262;14.208;2024-01-27T08:22:05;100155.63;;;2.12;100.00
79481;BME280;68944;48.262;14.208;2024-01-27T08:24:30;100146.72;;;2.15;100.00
79481;BME280;68944;48.262;14.208;2024-01-27T08:26:56;100159.88;;;2.13;100.00
79481;BME280;68944;48.262;14.208;2024-01-27T08:29:23;100151.34;;;2.11;100.00
79481;BME280;68944;48.262;14.208;2024-01-27T08:31:49;100153.94;;;2.23;100.00
79481;BME280;68944;48.262;14.208;2024-01-27T08:34:17;100151.59;;;2.31;100.00
79481;BME280;68944;48.262;14.208;2024-01-27T08:36:42;100162.53;;;2.36;100.00
79481;BME280;68944;48.262;14.208;2024-01-27T08:39:08;100158.81;;;2.39;100.00
79481;BME280;68944;48.262;14.208;2024-01-27T08:41:34;100149.78;;;2.43;100.00
79481;BME280;68944;48.262;14.208;2024-01-27T08:43:59;100161.91;;;2.44;100.00
79481;BME280;68944;48.262;14.208;2024-01-27T08:46:25;100168.81;;;2.45;100.00
79481;BME280;68944;48.262;14.208;2024-01-27T08:48:51;100167.28;;;2.43;100.00
79481;BME280;68944;48.262;14.208;2024-01-27T08:51:17;100174.16;;;2.44;100.00
79481;BME280;68944;48.262;14.208;2024-01-27T08:53:43;100169.41;;;2.49;100.00
79481;BME280;68944;48.262;14.208;2024-01-27T08:56:17;100170.81;;;2.53;100.00
79481;BME280;68944;48.262;14.208;2024-01-27T08:58:43;100165.13;;;2.59;100.00
79481;BME280;68944;48.262;14.208;2024-01-27T09:01:10;100160.47;;;2.63;100.00
79481;BME280;68944;48.262;14.208;2024-01-27T09:03:39;100152.47;;;2.65;100.00
79481;BME280;68944;48.262;14.208;2024-01-27T09:06:06;100162.72;;;2.68;100.00
79481;BME280;68944;48.262;14.208;2024-01-27T09:08:33;100170.19;;;2.72;100.00
79481;BME280;68944;48.262;14.208;2024-01-27T09:10:59;100155.78;;;2.78;100.00
79481;BME280;68944;48.262;14.208;2024-01-27T09:13:24;100171.94;;;2.83;100.00
79481;BME280;68944;48.262;14.208;2024-01-27T09:15:50;100153.84;;;2.92;100.00
79481;BME280;68944;48.262;14.208;2024-01-27T09:18:15;100154.44;;;2.95;100.00
79481;BME280;68944;48.262;14.208;2024-01-27T09:20:42;100155.78;;;2.90;100.00
79481;BME280;68944;48.262;14.208;2024-01-27T09:23:07;100153.59;;;2.95;100.00
79481;BME280;68944;48.262;14.208;2024-01-27T09:25:33;100167.28;;;2.99;100.00
79481;BME280;68944;48.262;14.208;2024-01-27T09:27:58;100161.16;;;3.10;100.00
79481;BME280;68944;48.262;14.208;2024-01-27T09:30:26;100166.16;;;3.13;100.00
79481;BME280;68944;48.262;14.208;2024-01-27T09:32:52;100168.44;;;3.06;100.00
79481;BME280;68944;48.262;14.208;2024-01-27T09:35:17;100169.72;;;3.12;100.00
79481;BME280;68944;48.262;14.208;2024-01-27T09:37:43;100174.09;;;3.23;100.00
79481;BME280;68944;48.262;14.208;2024-01-27T09:40:10;100171.84;;;3.18;100.00
79481;BME280;68944;48.262;14.208;2024-01-27T09:42:37;100163.28;;;3.16;100.00
79481;BME280;68944;48.262;14.208;2024-01-27T09:45:08;100159.16;;;3.35;100.00
79481;BME280;68944;48.262;14.208;2024-01-27T09:47:35;100172.53;;;3.53;100.00
79481;BME280;68944;48.262;14.208;2024-01-27T09:50:01;100175.66;;;3.68;100.00
79481;BME280;68944;48.262;14.208;2024-01-27T09:52:27;100163.56;;;3.77;100.00
79481;BME280;68944;48.262;14.208;2024-01-27T09:54:53;100168.69;;;3.79;100.00
79481;BME280;68944;48.262;14.208;2024-01-27T09:57:18;100166.06;;;3.79;100.00
79481;BME280;68944;48.262;14.208;2024-01-27T09:59:47;100171.38;;;3.89;100.00
79481;BME280;68944;48.262;14.208;2024-01-27T10:02:14;100161.19;;;3.95;100.00
79481;BME280;68944;48.262;14.208;2024-01-27T10:04:41;100169.09;;;4.05;100.00
79481;BME280;68944;48.262;14.208;2024-01-27T10:07:08;100166.78;;;4.12;100.00
79481;BME280;68944;48.262;14.208;2024-01-27T10:09:33;100177.59;;;4.19;100.00
79481;BME280;68944;48.262;14.208;2024-01-27T10:12:00;100172.19;;;4.20;100.00
79481;BME280;68944;48.262;14.208;2024-01-27T10:14:38;100170.13;;;3.93;100.00
79481;BME280;68944;48.262;14.208;2024-01-27T10:17:04;100180.38;;;3.96;100.00
79481;BME280;68944;48.262;14.208;2024-01-27T10:19:30;100174.84;;;3.68;100.00
79481;BME280;68944;48.262;14.208;2024-01-27T10:22:02;100171.44;;;3.56;100.00
79481;BME280;68944;48.262;14.208;2024-01-27T10:24:29;100187.47;;;3.62;100.00
79481;BME280;68944;48.262;14.208;2024-01-27T10:27:01;100208.13;;;3.56;100.00
79481;BME280;68944;48.262;14.208;2024-01-27T10:29:27;100196.16;;;3.41;100.00
79481;BME280;68944;48.262;14.208;2024-01-27T10:31:53;100186.41;;;3.65;100.00
79481;BME280;68944;48.262;14.208;2024-01-27T10:34:21;100172.75;;;3.93;100.00
79481;BME280;68944;48.262;14.208;2024-01-27T10:36:47;100179.56;;;3.74;100.00
79481;BME280;68944;48.262;14.208;2024-01-27T10:39:17;100166.19;;;3.98;100.00
79481;BME280;68944;48.262;14.208;2024-01-27T10:41:45;100160.41;;;4.05;100.00
79481;BME280;68944;48.262;14.208;2024-01-27T10:44:14;100189.09;;;3.96;100.00
79481;BME280;68944;48.262;14.208;2024-01-27T10:46:43;100159.03;;;4.10;100.00
79481;BME280;68944;48.262;14.208;2024-01-27T10:49:11;100158.00;;;4.23;100.00
79481;BME280;68944;48.262;14.208;2024-01-27T10:51:38;100163.59;;;4.50;100.00
79481;BME280;68944;48.262;14.208;2024-01-27T10:54:13;100162.41;;;4.74;100.00
79481;BME280;68944;48.262;14.208;2024-01-27T10:56:40;100161.19;;;4.88;100.00
79481;BME280;68944;48.262;14.208;2024-01-27T10:59:09;100175.31;;;4.97;100.00
79481;BME280;68944;48.262;14.208;2024-01-27T11:01:36;100160.50;;;5.16;100.00
79481;BME280;68944;48.262;14.208;2024-01-27T11:04:03;100170.59;;;5.40;100.00
79481;BME280;68944;48.262;14.208;2024-01-27T11:06:29;100171.72;;;5.18;100.00
79481;BME280;68944;48.262;14.208;2024-01-27T11:08:56;100171.16;;;4.94;100.00
79481;BME280;68944;48.262;14.208;2024-01-27T11:11:23;100166.03;;;4.93;100.00
79481;BME280;68944;48.262;14.208;2024-01-27T11:13:49;100157.88;;;4.86;100.00
79481;BME280;68944;48.262;14.208;2024-01-27T11:16:17;100147.91;;;4.80;100.00
79481;BME280;68944;48.262;14.208;2024-01-27T11:18:43;100148.63;;;5.01;100.00
79481;BME280;68944;48.262;14.208;2024-01-27T11:21:14;100147.78;;;4.91;100.00
79481;BME280;68944;48.262;14.208;2024-01-27T11:23:40;100145.72;;;5.05;100.00
79481;BME280;68944;48.262;14.208;2024-01-27T11:26:06;100151.53;;;5.18;100.00
79481;BME280;68944;48.262;14.208;2024-01-27T11:28:32;100164.66;;;5.18;100.00
79481;BME280;68944;48.262;14.208;2024-01-27T11:30:58;100164.81;;;5.17;100.00
79481;BME280;68944;48.262;14.208;2024-01-27T11:33:26;100164.94;;;5.25;100.00
79481;BME280;68944;48.262;14.208;2024-01-27T11:36:01;100166.47;;;5.28;100.00
79481;BME280;68944;48.262;14.208;2024-01-27T11:38:28;100155.59;;;5.71;100.00
79481;BME280;68944;48.262;14.208;2024-01-27T11:40:53;100156.84;;;5.76;100.00
79481;BME280;68944;48.262;14.208;2024-01-27T11:43:18;100169.16;;;5.76;100.00
79481;BME280;68944;48.262;14.208;2024-01-27T11:45:57;100162.66;;;5.80;100.00
79481;BME280;68944;48.262;14.208;2024-01-27T11:48:23;100166.13;;;5.71;100.00
79481;BME280;68944;48.262;14.208;2024-01-27T11:50:49;100193.94;;;5.73;100.00
79481;BME280;68944;48.262;14.208;2024-01-27T11:53:16;100172.38;;;5.69;100.00
79481;BME280;68944;48.262;14.208;2024-01-27T11:55:41;100181.88;;;5.90;100.00
79481;BME280;68944;48.262;14.208;2024-01-27T11:58:07;100175.38;;;5.85;100.00
79481;BME280;68944;48.262;14.208;2024-01-27T12:00:32;100166.94;;;5.91;100.00
79481;BME280;68944;48.262;14.208;2024-01-27T12:02:58;100170.53;;;5.90;100.00
79481;BME280;68944;48.262;14.208;2024-01-27T12:05:23;100161.63;;;6.11;100.00
79481;BME280;68944;48.262;14.208;2024-01-27T12:07:50;100167.22;;;6.26;100.00
79481;BME280;68944;48.262;14.208;2024-01-27T12:10:15;100147.13;;;6.35;100.00
79481;BME280;68944;48.262;14.208;2024-01-27T12:12:40;100135.72;;;6.44;100.00
79481;BME280;68944;48.262;14.208;2024-01-27T12:15:06;100139.88;;;6.65;100.00
79481;BME280;68944;48.262;14.208;2024-01-27T12:17:32;100128.97;;;6.60;100.00
79481;BME280;68944;48.262;14.208;2024-01-27T12:19:57;100144.81;;;6.50;100.00
79481;BME280;68944;48.262;14.208;2024-01-27T12:22:27;100135.56;;;6.46;100.00
79481;BME280;68944;48.262;14.208;2024-01-27T12:24:54;100143.56;;;6.72;100.00
79481;BME280;68944;48.262;14.208;2024-01-27T12:27:22;100137.38;;;6.64;100.00
79481;BME280;68944;48.262;14.208;2024-01-27T12:29:48;100138.59;;;6.69;100.00
79481;BME280;68944;48.262;14.208;2024-01-27T12:32:15;100125.50;;;6.78;100.00
79481;BME280;68944;48.262;14.208;2024-01-27T12:34:42;100120.75;;;6.63;100.00
79481;BME280;68944;48.262;14.208;2024-01-27T12:37:08;100129.34;;;6.65;100.00
79481;BME280;68944;48.262;14.208;2024-01-27T12:39:36;100140.47;;;6.77;100.00